UAL1706 KSLC-KLAX
Flight info
| Callsign | UAL1706 |
|---|---|
| Flight time | 1h 24m |
| Altitude | 38000 |
| Route | ARCHZ1 WINEN LAKRR HAKMN ANJLL4 |
| Aircraft | B77W/H-SDE1E2E3FGHIJ2J3J4J5M1RWXY/LB1D1 |
Departure
| Time | 2026-04-20 01:41 |
|---|---|
| Airport | Salt Lake City International Airport (KSLC) |
Arrival
| Time | 2026-04-20 03:06 |
|---|---|
| Airport | Los Angeles International Airport (KLAX) |
| Time | Latitude | Longitude | Altitude | Speed | Heading |
|---|---|---|---|---|---|
| 2026-04-20 01:19 | 40.78633 | -111.98613 | 4238 ft | 0 kts | 174° |
| 2026-04-20 01:31 | 40.78647 | -111.98615 | 4236 ft | 2 kts | 175° |
| 2026-04-20 01:31 | 40.78663 | -111.98617 | 4236 ft | 2 kts | 176° |
| 2026-04-20 01:31 | 40.78680 | -111.98618 | 4234 ft | 2 kts | 174° |
| 2026-04-20 01:31 | 40.78696 | -111.98615 | 4235 ft | 2 kts | 252° |
| 2026-04-20 01:32 | 40.78699 | -111.98594 | 4235 ft | 2 kts | 263° |
| 2026-04-20 01:32 | 40.78700 | -111.98588 | 4235 ft | 0 kts | 265° |
| 2026-04-20 01:33 | 40.78700 | -111.98589 | 4235 ft | 0 kts | 265° |
| 2026-04-20 01:33 | 40.78700 | -111.98592 | 4235 ft | 0 kts | 265° |
| 2026-04-20 01:33 | 40.78699 | -111.98602 | 4235 ft | 4 kts | 265° |
| 2026-04-20 01:34 | 40.78696 | -111.98657 | 4232 ft | 7 kts | 265° |
| 2026-04-20 01:34 | 40.78692 | -111.98717 | 4235 ft | 7 kts | 263° |
| 2026-04-20 01:34 | 40.78687 | -111.98777 | 4237 ft | 7 kts | 265° |
| 2026-04-20 01:34 | 40.78682 | -111.98850 | 4235 ft | 8 kts | 265° |
| 2026-04-20 01:35 | 40.78677 | -111.98924 | 4236 ft | 8 kts | 265° |
| 2026-04-20 01:35 | 40.78672 | -111.98999 | 4236 ft | 8 kts | 264° |
| 2026-04-20 01:35 | 40.78666 | -111.99075 | 4236 ft | 8 kts | 264° |
| 2026-04-20 01:35 | 40.78661 | -111.99150 | 4237 ft | 8 kts | 266° |
| 2026-04-20 01:36 | 40.78657 | -111.99225 | 4238 ft | 8 kts | 266° |
| 2026-04-20 01:36 | 40.78652 | -111.99301 | 4238 ft | 8 kts | 266° |
| 2026-04-20 01:36 | 40.78647 | -111.99377 | 4237 ft | 8 kts | 264° |
| 2026-04-20 01:36 | 40.78625 | -111.99445 | 4237 ft | 9 kts | 211° |
| 2026-04-20 01:37 | 40.78565 | -111.99454 | 4236 ft | 9 kts | 176° |
| 2026-04-20 01:37 | 40.78503 | -111.99448 | 4236 ft | 9 kts | 176° |
| 2026-04-20 01:37 | 40.78440 | -111.99442 | 4236 ft | 9 kts | 174° |
| 2026-04-20 01:37 | 40.78375 | -111.99433 | 4234 ft | 10 kts | 174° |
| 2026-04-20 01:38 | 40.78300 | -111.99424 | 4232 ft | 12 kts | 175° |
| 2026-04-20 01:38 | 40.78216 | -111.99415 | 4232 ft | 12 kts | 175° |
| 2026-04-20 01:38 | 40.78132 | -111.99408 | 4234 ft | 12 kts | 181° |
| 2026-04-20 01:38 | 40.78049 | -111.99424 | 4242 ft | 12 kts | 193° |
| 2026-04-20 01:39 | 40.77965 | -111.99437 | 4261 ft | 12 kts | 179° |
| 2026-04-20 01:39 | 40.77882 | -111.99430 | 4261 ft | 12 kts | 176° |
| 2026-04-20 01:39 | 40.77798 | -111.99419 | 4264 ft | 12 kts | 174° |
| 2026-04-20 01:39 | 40.77714 | -111.99409 | 4267 ft | 12 kts | 175° |
| 2026-04-20 01:40 | 40.77630 | -111.99400 | 4268 ft | 12 kts | 175° |
| 2026-04-20 01:40 | 40.77547 | -111.99411 | 4267 ft | 12 kts | 208° |
| 2026-04-20 01:40 | 40.77517 | -111.99499 | 4267 ft | 7 kts | 266° |
| 2026-04-20 01:40 | 40.77557 | -111.99550 | 4268 ft | 16 kts | 345° |
| 2026-04-20 01:41 | 40.77879 | -111.99595 | 4263 ft | 85 kts | 355° |
| 2026-04-20 01:41 | 40.78710 | -111.99691 | 4239 ft | 152 kts | 354° |
| 2026-04-20 01:41 | 40.79932 | -111.99837 | 4338 ft | 189 kts | 353° |
| 2026-04-20 01:41 | 40.81231 | -111.99987 | 5055 ft | 186 kts | 353° |
| 2026-04-20 01:42 | 40.82523 | -112.00230 | 5647 ft | 195 kts | 340° |
| 2026-04-20 01:42 | 40.83666 | -112.01323 | 5869 ft | 216 kts | 303° |
| 2026-04-20 01:42 | 40.84208 | -112.03265 | 6072 ft | 240 kts | 277° |
| 2026-04-20 01:42 | 40.84332 | -112.05552 | 6578 ft | 256 kts | 272° |
| 2026-04-20 01:43 | 40.84385 | -112.07937 | 7199 ft | 265 kts | 270° |
| 2026-04-20 01:43 | 40.84452 | -112.10409 | 7908 ft | 272 kts | 270° |
| 2026-04-20 01:43 | 40.84534 | -112.12897 | 8647 ft | 270 kts | 270° |
| 2026-04-20 01:43 | 40.84641 | -112.15421 | 9017 ft | 284 kts | 270° |
| 2026-04-20 01:44 | 40.84765 | -112.18056 | 8982 ft | 289 kts | 271° |
| 2026-04-20 01:44 | 40.84895 | -112.20714 | 9299 ft | 290 kts | 271° |
| 2026-04-20 01:44 | 40.85031 | -112.23373 | 10217 ft | 290 kts | 271° |
| 2026-04-20 01:44 | 40.85134 | -112.25990 | 11075 ft | 287 kts | 263° |
| 2026-04-20 01:45 | 40.84536 | -112.28559 | 11498 ft | 303 kts | 235° |
| 2026-04-20 01:45 | 40.82930 | -112.30505 | 11735 ft | 330 kts | 207° |
| 2026-04-20 01:45 | 40.80660 | -112.31441 | 12173 ft | 353 kts | 188° |
| 2026-04-20 01:45 | 40.78173 | -112.31466 | 13066 ft | 364 kts | 176° |
| 2026-04-20 01:46 | 40.75667 | -112.30869 | 14034 ft | 370 kts | 165° |
| 2026-04-20 01:46 | 40.73260 | -112.29733 | 14846 ft | 376 kts | 164° |
| 2026-04-20 01:46 | 40.70686 | -112.29010 | 15662 ft | 380 kts | 176° |
| 2026-04-20 01:46 | 40.68032 | -112.28945 | 16661 ft | 382 kts | 185° |
| 2026-04-20 01:47 | 40.65382 | -112.29297 | 17645 ft | 386 kts | 189° |
| 2026-04-20 01:47 | 40.62709 | -112.29841 | 18535 ft | 392 kts | 190° |
| 2026-04-20 01:47 | 40.59993 | -112.30428 | 19330 ft | 398 kts | 190° |
| 2026-04-20 01:47 | 40.57245 | -112.31024 | 20132 ft | 403 kts | 191° |
| 2026-04-20 01:48 | 40.54507 | -112.31891 | 20947 ft | 407 kts | 197° |
| 2026-04-20 01:48 | 40.51788 | -112.33027 | 21747 ft | 412 kts | 198° |
| 2026-04-20 01:48 | 40.49043 | -112.34176 | 22515 ft | 417 kts | 198° |
| 2026-04-20 01:48 | 40.46258 | -112.35332 | 23279 ft | 423 kts | 198° |
| 2026-04-20 01:49 | 40.43435 | -112.36496 | 23958 ft | 428 kts | 198° |
| 2026-04-20 01:49 | 40.40573 | -112.37669 | 24609 ft | 432 kts | 198° |
| 2026-04-20 01:49 | 40.37697 | -112.38843 | 25266 ft | 435 kts | 198° |
| 2026-04-20 01:49 | 40.34827 | -112.40013 | 25912 ft | 438 kts | 198° |
| 2026-04-20 01:50 | 40.31904 | -112.41203 | 26525 ft | 442 kts | 198° |
| 2026-04-20 01:50 | 40.28952 | -112.42404 | 27112 ft | 446 kts | 198° |
| 2026-04-20 01:50 | 40.25973 | -112.43616 | 27686 ft | 450 kts | 199° |
| 2026-04-20 01:50 | 40.22973 | -112.44834 | 28260 ft | 454 kts | 199° |
| 2026-04-20 01:51 | 40.19945 | -112.46087 | 28814 ft | 457 kts | 200° |
| 2026-04-20 01:51 | 40.16976 | -112.47620 | 29331 ft | 460 kts | 206° |
| 2026-04-20 01:51 | 40.14127 | -112.49549 | 29848 ft | 463 kts | 210° |
| 2026-04-20 01:51 | 40.11299 | -112.51586 | 30294 ft | 465 kts | 210° |
| 2026-04-20 01:52 | 40.08453 | -112.53624 | 30726 ft | 467 kts | 210° |
| 2026-04-20 01:52 | 40.05603 | -112.55649 | 31275 ft | 465 kts | 209° |
| 2026-04-20 01:52 | 40.02776 | -112.57645 | 31948 ft | 460 kts | 209° |
| 2026-04-20 01:52 | 39.99979 | -112.59610 | 32656 ft | 454 kts | 209° |
| 2026-04-20 01:53 | 39.97205 | -112.61554 | 33299 ft | 450 kts | 209° |
| 2026-04-20 01:53 | 39.94451 | -112.63483 | 33876 ft | 448 kts | 209° |
| 2026-04-20 01:53 | 39.92639 | -112.64750 | 34197 ft | 447 kts | 209° |
| 2026-04-20 01:53 | 39.89907 | -112.66661 | 34565 ft | 447 kts | 209° |
| 2026-04-20 01:54 | 39.87161 | -112.68580 | 34923 ft | 448 kts | 209° |
| 2026-04-20 01:54 | 39.84419 | -112.70494 | 35353 ft | 446 kts | 209° |
| 2026-04-20 01:54 | 39.81690 | -112.72398 | 35784 ft | 444 kts | 209° |
| 2026-04-20 01:54 | 39.78970 | -112.74295 | 36199 ft | 443 kts | 209° |
| 2026-04-20 01:55 | 39.76259 | -112.76184 | 36576 ft | 442 kts | 209° |
| 2026-04-20 01:55 | 39.73542 | -112.78074 | 36847 ft | 444 kts | 209° |
| 2026-04-20 01:55 | 39.70814 | -112.79970 | 37075 ft | 446 kts | 209° |
| 2026-04-20 01:55 | 39.68023 | -112.81737 | 37337 ft | 447 kts | 204° |
| 2026-04-20 01:56 | 39.65110 | -112.83170 | 37597 ft | 449 kts | 199° |
| 2026-04-20 01:56 | 39.62119 | -112.84344 | 37850 ft | 450 kts | 199° |
| 2026-04-20 01:56 | 39.56101 | -112.86692 | 37936 ft | 449 kts | 199° |
| 2026-04-20 01:57 | 39.50172 | -112.89027 | 37934 ft | 442 kts | 199° |
| 2026-04-20 01:57 | 39.44311 | -112.91351 | 37926 ft | 440 kts | 199° |
| 2026-04-20 01:58 | 39.38450 | -112.93678 | 37935 ft | 441 kts | 199° |
| 2026-04-20 01:58 | 39.32623 | -112.95988 | 37925 ft | 442 kts | 199° |
| 2026-04-20 01:59 | 39.26732 | -112.98318 | 37926 ft | 444 kts | 199° |
| 2026-04-20 01:59 | 39.20821 | -113.00652 | 37924 ft | 445 kts | 199° |
| 2026-04-20 02:00 | 39.14888 | -113.02989 | 37932 ft | 446 kts | 199° |
| 2026-04-20 02:00 | 39.08951 | -113.05324 | 37928 ft | 446 kts | 199° |
| 2026-04-20 02:01 | 39.03001 | -113.07659 | 37926 ft | 447 kts | 199° |
| 2026-04-20 02:01 | 38.97055 | -113.09986 | 37924 ft | 446 kts | 199° |
| 2026-04-20 02:02 | 38.91125 | -113.12301 | 37948 ft | 445 kts | 199° |
| 2026-04-20 02:02 | 38.85235 | -113.14599 | 37945 ft | 444 kts | 199° |
| 2026-04-20 02:03 | 38.79325 | -113.16904 | 37956 ft | 443 kts | 199° |
| 2026-04-20 02:03 | 38.73423 | -113.19201 | 37941 ft | 443 kts | 199° |
| 2026-04-20 02:04 | 38.67532 | -113.21496 | 37957 ft | 442 kts | 199° |
| 2026-04-20 02:04 | 38.61639 | -113.23786 | 37994 ft | 443 kts | 199° |
| 2026-04-20 02:05 | 38.55741 | -113.26070 | 38008 ft | 443 kts | 199° |
| 2026-04-20 02:05 | 38.49836 | -113.28353 | 38009 ft | 444 kts | 199° |
| 2026-04-20 02:06 | 38.43920 | -113.30639 | 38009 ft | 445 kts | 199° |
| 2026-04-20 02:06 | 38.37975 | -113.32926 | 38003 ft | 446 kts | 199° |
| 2026-04-20 02:07 | 38.32027 | -113.35212 | 37991 ft | 447 kts | 199° |
| 2026-04-20 02:07 | 38.26071 | -113.37498 | 37983 ft | 447 kts | 199° |
| 2026-04-20 02:08 | 38.20116 | -113.39781 | 37971 ft | 447 kts | 199° |
| 2026-04-20 02:08 | 38.14201 | -113.42045 | 37975 ft | 447 kts | 199° |
| 2026-04-20 02:09 | 38.08250 | -113.44317 | 37967 ft | 447 kts | 199° |
| 2026-04-20 02:09 | 38.02294 | -113.46591 | 37969 ft | 446 kts | 199° |
| 2026-04-20 02:10 | 37.96344 | -113.48854 | 37967 ft | 446 kts | 199° |
| 2026-04-20 02:10 | 37.90408 | -113.51173 | 37970 ft | 446 kts | 200° |
| 2026-04-20 02:11 | 37.84551 | -113.53737 | 37970 ft | 446 kts | 201° |
| 2026-04-20 02:11 | 37.78700 | -113.56339 | 37960 ft | 446 kts | 201° |
| 2026-04-20 02:12 | 37.72841 | -113.58910 | 37972 ft | 446 kts | 201° |
| 2026-04-20 02:12 | 37.66973 | -113.61459 | 37964 ft | 446 kts | 201° |
| 2026-04-20 02:13 | 37.61088 | -113.64004 | 37979 ft | 447 kts | 201° |
| 2026-04-20 02:13 | 37.55200 | -113.66547 | 37948 ft | 447 kts | 201° |
| 2026-04-20 02:14 | 37.49317 | -113.69084 | 37963 ft | 448 kts | 201° |
| 2026-04-20 02:14 | 37.43419 | -113.71624 | 37954 ft | 448 kts | 201° |
| 2026-04-20 02:15 | 37.37519 | -113.74160 | 37940 ft | 448 kts | 201° |
| 2026-04-20 02:15 | 37.31612 | -113.76694 | 37927 ft | 448 kts | 201° |
| 2026-04-20 02:16 | 37.25718 | -113.79220 | 37939 ft | 447 kts | 201° |
| 2026-04-20 02:16 | 37.19830 | -113.81739 | 37937 ft | 446 kts | 201° |
| 2026-04-20 02:17 | 37.13951 | -113.84249 | 37929 ft | 446 kts | 201° |
| 2026-04-20 02:17 | 37.08081 | -113.86753 | 37916 ft | 446 kts | 201° |
| 2026-04-20 02:18 | 37.02197 | -113.89256 | 37921 ft | 446 kts | 201° |
| 2026-04-20 02:18 | 36.96322 | -113.91753 | 37901 ft | 446 kts | 201° |
| 2026-04-20 02:19 | 36.90443 | -113.94247 | 37898 ft | 446 kts | 201° |
| 2026-04-20 02:19 | 36.84598 | -113.96723 | 37892 ft | 446 kts | 201° |
| 2026-04-20 02:20 | 36.78714 | -113.99212 | 37885 ft | 447 kts | 201° |
| 2026-04-20 02:20 | 36.72822 | -114.01699 | 37871 ft | 447 kts | 201° |
| 2026-04-20 02:21 | 36.63972 | -114.05428 | 37863 ft | 448 kts | 201° |
| 2026-04-20 02:22 | 36.58072 | -114.07909 | 37853 ft | 449 kts | 201° |
| 2026-04-20 02:22 | 36.52142 | -114.10402 | 37862 ft | 450 kts | 201° |
| 2026-04-20 02:23 | 36.46201 | -114.12890 | 37856 ft | 451 kts | 201° |
| 2026-04-20 02:23 | 36.40260 | -114.15375 | 37840 ft | 451 kts | 201° |
| 2026-04-20 02:24 | 36.34311 | -114.17860 | 37825 ft | 450 kts | 201° |
| 2026-04-20 02:24 | 36.28374 | -114.20336 | 37836 ft | 450 kts | 201° |
| 2026-04-20 02:25 | 36.22475 | -114.22794 | 37843 ft | 450 kts | 201° |
| 2026-04-20 02:25 | 36.16540 | -114.25263 | 37817 ft | 450 kts | 201° |
| 2026-04-20 02:26 | 36.10726 | -114.28056 | 37819 ft | 447 kts | 211° |
| 2026-04-20 02:26 | 36.05698 | -114.32499 | 37814 ft | 444 kts | 223° |
| 2026-04-20 02:27 | 36.01526 | -114.38103 | 37820 ft | 443 kts | 229° |
| 2026-04-20 02:27 | 35.97463 | -114.43852 | 37823 ft | 444 kts | 229° |
| 2026-04-20 02:28 | 35.93363 | -114.49591 | 37838 ft | 446 kts | 229° |
| 2026-04-20 02:28 | 35.89237 | -114.55309 | 37844 ft | 446 kts | 229° |
| 2026-04-20 02:29 | 35.85092 | -114.61027 | 37805 ft | 447 kts | 229° |
| 2026-04-20 02:29 | 35.80944 | -114.66742 | 37866 ft | 447 kts | 229° |
| 2026-04-20 02:30 | 35.76786 | -114.72460 | 37849 ft | 448 kts | 229° |
| 2026-04-20 02:30 | 35.72660 | -114.78128 | 37901 ft | 447 kts | 229° |
| 2026-04-20 02:31 | 35.68504 | -114.83825 | 37895 ft | 447 kts | 229° |
| 2026-04-20 02:31 | 35.64351 | -114.89510 | 37902 ft | 447 kts | 229° |
| 2026-04-20 02:32 | 35.60196 | -114.95190 | 37905 ft | 447 kts | 229° |
| 2026-04-20 02:32 | 35.56042 | -115.00858 | 37916 ft | 446 kts | 229° |
| 2026-04-20 02:33 | 35.51883 | -115.06525 | 37914 ft | 446 kts | 229° |
| 2026-04-20 02:33 | 35.47685 | -115.12132 | 37931 ft | 446 kts | 227° |
| 2026-04-20 02:34 | 35.43425 | -115.17661 | 37925 ft | 446 kts | 227° |
| 2026-04-20 02:34 | 35.39162 | -115.23189 | 37937 ft | 446 kts | 227° |
| 2026-04-20 02:35 | 35.34936 | -115.28682 | 37952 ft | 446 kts | 227° |
| 2026-04-20 02:35 | 35.30681 | -115.34214 | 37954 ft | 446 kts | 228° |
| 2026-04-20 02:36 | 35.26419 | -115.39743 | 37957 ft | 446 kts | 228° |
| 2026-04-20 02:36 | 35.22155 | -115.45267 | 37954 ft | 447 kts | 228° |
| 2026-04-20 02:37 | 35.17884 | -115.50790 | 37933 ft | 447 kts | 228° |
| 2026-04-20 02:37 | 35.13607 | -115.56314 | 37948 ft | 447 kts | 227° |
| 2026-04-20 02:38 | 35.09314 | -115.61829 | 37940 ft | 447 kts | 227° |
| 2026-04-20 02:38 | 35.05013 | -115.67322 | 37926 ft | 448 kts | 227° |
| 2026-04-20 02:39 | 35.01431 | -115.71891 | 37929 ft | 448 kts | 227° |
| 2026-04-20 02:39 | 34.96419 | -115.78280 | 37913 ft | 449 kts | 227° |
| 2026-04-20 02:40 | 34.92803 | -115.82884 | 37893 ft | 449 kts | 227° |
| 2026-04-20 02:40 | 34.88474 | -115.88386 | 37900 ft | 449 kts | 227° |
| 2026-04-20 02:41 | 34.84146 | -115.93880 | 37886 ft | 449 kts | 227° |
| 2026-04-20 02:41 | 34.79815 | -115.99369 | 37864 ft | 450 kts | 227° |
| 2026-04-20 02:42 | 34.75486 | -116.04853 | 37825 ft | 450 kts | 228° |
| 2026-04-20 02:42 | 34.73296 | -116.07642 | 37071 ft | 460 kts | 227° |
| 2026-04-20 02:42 | 34.71090 | -116.10455 | 36413 ft | 459 kts | 227° |
| 2026-04-20 02:42 | 34.68893 | -116.13254 | 35834 ft | 455 kts | 227° |
| 2026-04-20 02:43 | 34.66722 | -116.16017 | 35309 ft | 451 kts | 227° |
| 2026-04-20 02:43 | 34.64591 | -116.18726 | 34789 ft | 447 kts | 227° |
| 2026-04-20 02:43 | 34.62445 | -116.21450 | 34278 ft | 444 kts | 227° |
| 2026-04-20 02:43 | 34.60317 | -116.24151 | 33746 ft | 442 kts | 227° |
| 2026-04-20 02:44 | 34.58197 | -116.26839 | 33163 ft | 439 kts | 227° |
| 2026-04-20 02:44 | 34.56089 | -116.29510 | 32622 ft | 436 kts | 227° |
| 2026-04-20 02:44 | 34.53997 | -116.32157 | 32112 ft | 433 kts | 227° |
| 2026-04-20 02:44 | 34.51919 | -116.34786 | 31605 ft | 430 kts | 227° |
| 2026-04-20 02:45 | 34.49858 | -116.37391 | 31067 ft | 427 kts | 226° |
| 2026-04-20 02:45 | 34.47794 | -116.39998 | 30308 ft | 431 kts | 226° |
| 2026-04-20 02:45 | 34.45708 | -116.42632 | 29457 ft | 435 kts | 226° |
| 2026-04-20 02:45 | 34.43614 | -116.45272 | 28661 ft | 435 kts | 226° |
| 2026-04-20 02:46 | 34.41570 | -116.47980 | 27873 ft | 436 kts | 232° |
| 2026-04-20 02:46 | 34.40017 | -116.51124 | 27134 ft | 436 kts | 244° |
| 2026-04-20 02:46 | 34.38761 | -116.54453 | 26552 ft | 432 kts | 245° |
| 2026-04-20 02:46 | 34.37512 | -116.57734 | 26035 ft | 427 kts | 245° |
| 2026-04-20 02:47 | 34.36235 | -116.60950 | 25675 ft | 419 kts | 244° |
| 2026-04-20 02:47 | 34.34954 | -116.64074 | 25457 ft | 409 kts | 244° |
| 2026-04-20 02:47 | 34.33697 | -116.67106 | 25220 ft | 399 kts | 244° |
| 2026-04-20 02:47 | 34.32476 | -116.70081 | 24919 ft | 392 kts | 244° |
| 2026-04-20 02:48 | 34.31289 | -116.73028 | 24537 ft | 388 kts | 244° |
| 2026-04-20 02:48 | 34.30116 | -116.75957 | 24091 ft | 387 kts | 244° |
| 2026-04-20 02:48 | 34.28944 | -116.78882 | 23624 ft | 385 kts | 244° |
| 2026-04-20 02:48 | 34.27777 | -116.81787 | 23157 ft | 383 kts | 244° |
| 2026-04-20 02:49 | 34.26616 | -116.84671 | 22695 ft | 380 kts | 244° |
| 2026-04-20 02:49 | 34.25463 | -116.87533 | 22233 ft | 378 kts | 243° |
| 2026-04-20 02:49 | 34.24318 | -116.90370 | 21813 ft | 374 kts | 243° |
| 2026-04-20 02:49 | 34.23196 | -116.93148 | 21341 ft | 373 kts | 243° |
| 2026-04-20 02:50 | 34.22060 | -116.95955 | 20892 ft | 370 kts | 243° |
| 2026-04-20 02:50 | 34.20946 | -116.98747 | 20459 ft | 368 kts | 245° |
| 2026-04-20 02:50 | 34.20051 | -117.01655 | 20007 ft | 369 kts | 250° |
| 2026-04-20 02:50 | 34.19310 | -117.04614 | 19588 ft | 367 kts | 251° |
| 2026-04-20 02:51 | 34.18579 | -117.07561 | 19185 ft | 365 kts | 250° |
| 2026-04-20 02:51 | 34.17818 | -117.10484 | 18797 ft | 364 kts | 249° |
| 2026-04-20 02:51 | 34.17039 | -117.13383 | 18404 ft | 362 kts | 249° |
| 2026-04-20 02:51 | 34.16256 | -117.16261 | 17995 ft | 360 kts | 249° |
| 2026-04-20 02:52 | 34.15468 | -117.19127 | 17591 ft | 358 kts | 249° |
| 2026-04-20 02:52 | 34.14683 | -117.21970 | 17181 ft | 356 kts | 249° |
| 2026-04-20 02:52 | 34.13900 | -117.24808 | 16754 ft | 355 kts | 249° |
| 2026-04-20 02:52 | 34.13123 | -117.27625 | 16326 ft | 353 kts | 249° |
| 2026-04-20 02:53 | 34.12348 | -117.30437 | 15926 ft | 352 kts | 249° |
| 2026-04-20 02:53 | 34.11578 | -117.33230 | 15529 ft | 350 kts | 249° |
| 2026-04-20 02:53 | 34.10809 | -117.36013 | 15134 ft | 348 kts | 249° |
| 2026-04-20 02:53 | 34.10066 | -117.38787 | 14759 ft | 347 kts | 250° |
| 2026-04-20 02:54 | 34.09371 | -117.41585 | 14367 ft | 347 kts | 251° |
| 2026-04-20 02:54 | 34.08695 | -117.44329 | 13990 ft | 345 kts | 251° |
| 2026-04-20 02:54 | 34.08006 | -117.47100 | 13598 ft | 344 kts | 250° |
| 2026-04-20 02:54 | 34.07320 | -117.49834 | 13300 ft | 340 kts | 250° |
| 2026-04-20 02:55 | 34.06493 | -117.52499 | 12950 ft | 335 kts | 244° |
| 2026-04-20 02:55 | 34.05544 | -117.55053 | 12542 ft | 333 kts | 243° |
| 2026-04-20 02:55 | 34.04579 | -117.57592 | 12153 ft | 332 kts | 243° |
| 2026-04-20 02:55 | 34.03632 | -117.60134 | 11994 ft | 335 kts | 243° |
| 2026-04-20 02:56 | 34.02690 | -117.62716 | 11994 ft | 337 kts | 244° |
| 2026-04-20 02:56 | 34.01758 | -117.65296 | 11990 ft | 334 kts | 244° |
| 2026-04-20 02:56 | 34.00849 | -117.67848 | 11852 ft | 328 kts | 246° |
| 2026-04-20 02:56 | 34.00303 | -117.70499 | 11475 ft | 327 kts | 259° |
| 2026-04-20 02:57 | 34.00069 | -117.73232 | 10997 ft | 329 kts | 262° |
| 2026-04-20 02:57 | 33.99868 | -117.75986 | 10521 ft | 330 kts | 262° |
| 2026-04-20 02:57 | 33.99650 | -117.78694 | 10150 ft | 329 kts | 261° |
| 2026-04-20 02:57 | 33.99401 | -117.81423 | 9780 ft | 326 kts | 261° |
| 2026-04-20 02:58 | 33.99143 | -117.84125 | 9382 ft | 324 kts | 261° |
| 2026-04-20 02:58 | 33.98886 | -117.86782 | 9226 ft | 313 kts | 261° |
| 2026-04-20 02:58 | 33.98641 | -117.89314 | 8985 ft | 293 kts | 261° |
| 2026-04-20 02:58 | 33.98408 | -117.91710 | 8308 ft | 285 kts | 260° |
| 2026-04-20 02:59 | 33.98174 | -117.94068 | 7498 ft | 284 kts | 260° |
| 2026-04-20 02:59 | 33.97934 | -117.96469 | 6989 ft | 290 kts | 261° |
| 2026-04-20 02:59 | 33.97703 | -117.98815 | 6736 ft | 286 kts | 261° |
| 2026-04-20 02:59 | 33.97473 | -118.01181 | 6503 ft | 282 kts | 261° |
| 2026-04-20 03:00 | 33.97264 | -118.03503 | 6335 ft | 275 kts | 261° |
| 2026-04-20 03:00 | 33.97047 | -118.05754 | 6275 ft | 264 kts | 260° |
| 2026-04-20 03:00 | 33.96830 | -118.07908 | 6164 ft | 255 kts | 260° |
| 2026-04-20 03:00 | 33.96618 | -118.09993 | 6009 ft | 245 kts | 260° |
| 2026-04-20 03:01 | 33.96415 | -118.11986 | 5588 ft | 237 kts | 260° |
| 2026-04-20 03:01 | 33.96213 | -118.13955 | 5079 ft | 235 kts | 260° |
| 2026-04-20 03:01 | 33.96020 | -118.15855 | 4576 ft | 225 kts | 260° |
| 2026-04-20 03:01 | 33.95829 | -118.17726 | 3866 ft | 227 kts | 259° |
| 2026-04-20 03:02 | 33.95632 | -118.19631 | 3096 ft | 234 kts | 262° |
| 2026-04-20 03:02 | 33.95440 | -118.21542 | 2828 ft | 225 kts | 262° |
| 2026-04-20 03:02 | 33.95251 | -118.23393 | 2517 ft | 218 kts | 262° |
| 2026-04-20 03:02 | 33.95070 | -118.25178 | 2237 ft | 211 kts | 262° |
| 2026-04-20 03:03 | 33.94898 | -118.26873 | 1982 ft | 202 kts | 263° |
| 2026-04-20 03:03 | 33.94735 | -118.28475 | 1716 ft | 178 kts | 262° |
| 2026-04-20 03:03 | 33.94596 | -118.29844 | 1511 ft | 157 kts | 262° |
| 2026-04-20 03:03 | 33.94468 | -118.31098 | 1281 ft | 144 kts | 263° |
| 2026-04-20 03:04 | 33.94355 | -118.32224 | 1084 ft | 129 kts | 261° |
| 2026-04-20 03:04 | 33.94243 | -118.33294 | 964 ft | 130 kts | 262° |
| 2026-04-20 03:04 | 33.94134 | -118.34369 | 785 ft | 134 kts | 261° |
| 2026-04-20 03:04 | 33.94020 | -118.35475 | 595 ft | 135 kts | 262° |
| 2026-04-20 03:05 | 33.93915 | -118.36569 | 483 ft | 133 kts | 263° |
| 2026-04-20 03:05 | 33.93802 | -118.37662 | 263 ft | 134 kts | 264° |
| 2026-04-20 03:05 | 33.93688 | -118.38758 | 132 ft | 124 kts | 262° |
| 2026-04-20 03:05 | 33.93592 | -118.39625 | 129 ft | 79 kts | 263° |
| 2026-04-20 03:06 | 33.93543 | -118.40145 | 128 ft | 56 kts | 263° |
| 2026-04-20 03:06 | 33.93538 | -118.40431 | 126 ft | 25 kts | 279° |
| 2026-04-20 03:06 | 33.93583 | -118.40609 | 126 ft | 15 kts | 286° |
| 2026-04-20 03:06 | 33.93595 | -118.40730 | 127 ft | 15 kts | 271° |
| 2026-04-20 03:07 | 33.93613 | -118.40850 | 126 ft | 15 kts | 289° |
| 2026-04-20 03:07 | 33.93665 | -118.40896 | 127 ft | 10 kts | 355° |
| 2026-04-20 03:07 | 33.93733 | -118.40904 | 128 ft | 10 kts | 357° |
| 2026-04-20 03:07 | 33.93789 | -118.40861 | 126 ft | 10 kts | 65° |
| 2026-04-20 03:08 | 33.93800 | -118.40784 | 127 ft | 3 kts | 85° |
| 2026-04-20 03:08 | 33.93812 | -118.40745 | 126 ft | 3 kts | 49° |
| 2026-04-20 03:08 | 33.93846 | -118.40731 | 127 ft | 12 kts | 10° |
| 2026-04-20 03:09 | 33.93899 | -118.40772 | 127 ft | 6 kts | 308° |
| 2026-04-20 03:09 | 33.93936 | -118.40804 | 127 ft | 7 kts | 340° |
| 2026-04-20 03:09 | 33.93986 | -118.40817 | 126 ft | 8 kts | 351° |
| 2026-04-20 03:09 | 33.94029 | -118.40838 | 127 ft | 8 kts | 304° |
| 2026-04-20 03:10 | 33.94025 | -118.40908 | 125 ft | 9 kts | 263° |
| 2026-04-20 03:10 | 33.94024 | -118.40919 | 126 ft | 0 kts | 263° |